Time;durP1;ratioP1;P1;durP2;ratioP2;P2;SDS_P1;SDS_P2;PMS_P1;PMS_P2;Temp;Humidity;BMP_temperature;BMP_pressure;BME280_temperature;BME280_humidity;BME280_pressure;Samples;Min_cycle;Max_cycle;Signal;HPM_P1;HPM_P2
2021/08/30 00:02:09;;;;;;;13.58;7.28;;;;;;;22.65;56.11;100073.76;1802473;79;21332;-54
2021/08/30 00:05:17;;;;;;;15.93;7.08;;;;;;;22.59;56.29;100068.38;1794936;79;21348;-53
2021/08/30 00:08:22;;;;;;;16.25;6.87;;;;;;;22.54;56.46;100069.70;1802666;79;21406;-54
2021/08/30 00:11:29;;;;;;;12.07;7.50;;;;;;;22.48;56.33;100064.60;1802415;79;21189;-54
2021/08/30 00:14:37;;;;;;;12.35;7.30;;;;;;;22.45;56.27;100061.48;1802397;79;21418;-54
2021/08/30 00:17:45;;;;;;;10.23;7.30;;;;;;;22.42;56.58;100060.61;1802412;79;21185;-54
2021/08/30 00:20:52;;;;;;;14.03;7.35;;;;;;;22.38;56.48;100057.49;1802431;79;21319;-54
2021/08/30 00:23:58;;;;;;;19.95;7.37;;;;;;;22.33;56.91;100060.75;1802366;79;21375;-54
2021/08/30 00:27:04;;;;;;;18.02;6.97;;;;;;;22.29;57.06;100061.85;1802696;78;21241;-54
2021/08/30 00:30:12;;;;;;;9.83;6.70;;;;;;;22.25;56.82;100062.64;1802345;79;21272;-55
2021/08/30 00:33:18;;;;;;;10.15;6.37;;;;;;;22.18;56.89;100058.07;1795319;79;21861;-55
2021/08/30 00:36:25;;;;;;;12.60;6.90;;;;;;;22.14;56.85;100055.52;1802324;79;21178;-54
2021/08/30 00:39:32;;;;;;;13.25;6.95;;;;;;;22.09;57.07;100054.05;1802314;79;21251;-54
2021/08/30 00:42:38;;;;;;;10.50;6.40;;;;;;;22.05;57.03;100055.69;1802445;79;21233;-55
2021/08/30 00:45:44;;;;;;;11.65;7.45;;;;;;;22.02;57.20;100046.99;1802927;79;22327;-55
2021/08/30 00:48:51;;;;;;;13.53;6.92;;;;;;;22.00;57.42;100054.22;1802342;79;21394;-54
2021/08/30 00:52:00;;;;;;;12.82;5.95;;;;;;;21.96;57.58;100044.67;1802160;79;21213;-54
2021/08/30 00:55:06;;;;;;;9.80;6.35;;;;;;;21.94;57.12;100048.29;1802622;79;21328;-54
2021/08/30 00:58:13;;;;;;;9.53;6.62;;;;;;;21.92;56.77;100045.45;1802374;79;21278;-54
2021/08/30 01:01:17;;;;;;;10.45;6.20;;;;;;;21.91;57.03;100045.98;1803177;79;21223;-55
2021/08/30 01:04:24;;;;;;;10.18;6.33;;;;;;;21.91;56.89;100049.34;1804444;79;21406;-55
2021/08/30 01:08:09;;;;;;;10.70;6.50;;;;;;;21.89;56.59;100045.42;1803038;79;21356;-54
2021/08/30 01:11:17;;;;;;;13.88;6.60;;;;;;;21.88;57.03;100042.90;1804479;79;21335;-55
2021/08/30 01:14:23;;;;;;;13.13;6.53;;;;;;;21.86;57.13;100036.73;1804777;79;21704;-54
2021/08/30 01:17:28;;;;;;;12.60;5.85;;;;;;;21.83;56.73;100038.10;1804691;79;21328;-54
2021/08/30 01:20:40;;;;;;;11.10;6.33;;;;;;;21.82;56.93;100041.97;1804948;79;21205;-54
2021/08/30 01:23:48;;;;;;;12.50;7.03;;;;;;;21.79;56.77;100036.91;1805388;79;22126;-54
2021/08/30 01:27:01;;;;;;;10.05;6.37;;;;;;;21.78;57.11;100037.17;1804962;79;21769;-54
2021/08/30 01:30:12;;;;;;;12.73;7.10;;;;;;;21.74;57.09;100038.20;1804372;79;21363;-53
2021/08/30 01:33:17;;;;;;;11.90;6.62;;;;;;;21.72;57.10;100026.45;1796395;79;21323;-54
2021/08/30 01:36:22;;;;;;;7.40;5.90;;;;;;;21.69;56.88;100031.15;1804455;79;21697;-54
2021/08/30 01:39:32;;;;;;;10.90;6.25;;;;;;;21.68;56.74;100033.66;1804540;79;21260;-54
2021/08/30 01:42:38;;;;;;;11.90;7.35;;;;;;;21.67;56.81;100031.98;1804711;79;21375;-53
2021/08/30 01:45:44;;;;;;;12.23;6.58;;;;;;;21.66;57.15;100037.81;1796336;79;21347;-53
2021/08/30 01:48:51;;;;;;;16.17;6.55;;;;;;;21.62;57.00;100030.50;1804497;79;21378;-55
2021/08/30 01:51:57;;;;;;;9.43;6.67;;;;;;;21.60;56.85;100033.23;1804497;79;21328;-54
2021/08/30 01:55:15;;;;;;;13.20;7.28;;;;;;;21.58;56.57;100032.10;1805374;79;21359;-54
2021/08/30 02:01:16;;;;;;;10.50;6.72;;;;;;;21.55;56.55;100040.97;1793260;79;21241;-55
2021/08/30 02:04:22;;;;;;;10.98;6.22;;;;;;;21.54;56.56;100048.19;1802426;79;21877;-52
2021/08/30 02:07:29;;;;;;;10.72;6.87;;;;;;;21.52;56.53;100040.09;1795881;79;21861;-54
2021/08/30 02:10:35;;;;;;;13.98;6.65;;;;;;;21.52;56.71;100047.59;1801938;79;21351;-53
2021/08/30 02:13:40;;;;;;;13.58;6.58;;;;;;;21.50;56.80;100049.25;1802276;79;21256;-54
2021/08/30 02:16:46;;;;;;;11.90;6.55;;;;;;;21.48;56.98;100041.72;1802275;79;21378;-54
2021/08/30 02:19:56;;;;;;;11.90;6.45;;;;;;;21.46;56.84;100041.66;1802039;79;21458;-53
2021/08/30 02:23:01;;;;;;;11.55;6.00;;;;;;;21.43;57.32;100041.63;1802691;79;21707;-55
2021/08/30 02:26:16;;;;;;;14.20;6.15;;;;;;;21.39;57.50;100041.83;1802176;79;21378;-54
2021/08/30 02:29:25;;;;;;;8.75;5.95;;;;;;;21.37;57.12;100041.27;1802550;79;21367;-54
2021/08/30 02:32:31;;;;;;;10.65;6.08;;;;;;;21.36;56.91;100046.52;1801760;79;21966;-53
2021/08/30 02:35:39;;;;;;;11.10;5.55;;;;;;;21.34;56.45;100040.37;1802629;79;21391;-54
2021/08/30 02:38:44;;;;;;;12.28;5.60;;;;;;;21.32;56.52;100033.36;1802430;79;21277;-53
2021/08/30 02:41:50;;;;;;;13.30;6.40;;;;;;;21.33;56.52;100040.60;1802032;79;21186;-53
2021/08/30 02:44:56;;;;;;;10.03;6.35;;;;;;;21.31;56.40;100034.47;1802565;79;21352;-53
2021/08/30 02:48:02;;;;;;;14.15;6.70;;;;;;;21.31;56.11;100042.83;1794831;79;21189;-53
2021/08/30 02:51:09;;;;;;;13.32;6.17;;;;;;;21.30;56.06;100037.80;1802470;79;21331;-53
2021/08/30 02:54:14;;;;;;;11.25;5.80;;;;;;;21.30;55.83;100034.16;1801902;79;21399;-53
2021/08/30 02:57:19;;;;;;;9.13;5.65;;;;;;;21.28;56.05;100039.98;1802447;79;21213;-53
2021/08/30 03:00:25;;;;;;;12.40;5.95;;;;;;;21.29;55.68;100040.30;1802532;79;21398;-53
2021/08/30 03:03:31;;;;;;;8.38;5.78;;;;;;;21.30;55.80;100040.58;1801961;78;21437;-52
2021/08/30 03:06:37;;;;;;;9.18;5.67;;;;;;;21.30;55.86;100039.19;1802298;79;21343;-51
2021/08/30 03:09:44;;;;;;;14.13;5.83;;;;;;;21.31;55.84;100041.43;1802622;79;21210;-52
2021/08/30 03:12:51;;;;;;;8.55;5.40;;;;;;;21.32;55.57;100043.96;1802376;79;21229;-51
2021/08/30 03:15:57;;;;;;;10.63;6.08;;;;;;;21.33;55.45;100045.63;1802354;79;21332;-50
2021/08/30 03:19:04;;;;;;;10.13;5.55;;;;;;;21.35;55.40;100043.45;1802348;79;21217;-51
2021/08/30 03:22:10;;;;;;;8.18;5.37;;;;;;;21.35;55.16;100042.06;1802467;79;21681;-50
2021/08/30 03:25:17;;;;;;;11.63;5.17;;;;;;;21.37;55.13;100048.77;1802437;79;21268;-51
2021/08/30 03:28:22;;;;;;;10.95;5.55;;;;;;;21.38;54.97;100048.51;1802352;79;21462;-51
2021/08/30 03:31:30;;;;;;;10.50;5.40;;;;;;;21.39;55.35;100047.39;1802648;79;21715;-50
2021/08/30 03:34:36;;;;;;;11.45;5.78;;;;;;;21.41;54.94;100049.92;1802292;79;21344;-49
2021/08/30 03:37:41;;;;;;;10.98;5.10;;;;;;;21.43;54.62;100053.31;1786328;79;21170;-50
2021/08/30 03:40:48;;;;;;;13.65;5.87;;;;;;;21.44;54.62;100050.80;1770894;80;21729;-51
2021/08/30 03:43:54;;;;;;;11.53;5.83;;;;;;;21.45;54.81;100051.98;1735735;82;21224;-52
2021/08/30 03:47:00;;;;;;;11.97;5.47;;;;;;;21.49;54.63;100052.28;1735717;82;21769;-50
2021/08/30 03:50:02;;;;;;;13.72;5.35;;;;;;;21.51;54.76;100056.52;1735632;82;21931;-52
2021/08/30 03:52:55;;;;;;;10.82;5.75;;;;;;;21.53;54.47;100049.30;1735698;82;21203;-49
2021/08/30 03:56:01;;;;;;;9.48;5.80;;;;;;;21.57;54.46;100054.64;1735679;82;21698;-51
2021/08/30 03:59:09;;;;;;;11.75;5.80;;;;;;;21.59;54.64;100055.24;1735464;82;21259;-49
2021/08/30 04:02:14;;;;;;;10.60;5.62;;;;;;;21.62;54.58;100058.36;1735511;82;21285;-50
2021/08/30 04:05:23;;;;;;;9.73;5.15;;;;;;;21.66;54.34;100056.73;1701321;84;21612;-51
2021/08/30 04:08:30;;;;;;;9.93;5.53;;;;;;;21.69;54.26;100051.23;1736963;82;21187;-50
2021/08/30 04:11:36;;;;;;;13.40;6.37;;;;;;;21.73;54.18;100054.63;1701387;83;21204;-50
2021/08/30 04:14:43;;;;;;;9.65;4.85;;;;;;;21.78;54.28;100058.92;1737032;82;21303;-51
2021/08/30 04:17:49;;;;;;;10.45;5.60;;;;;;;21.82;53.98;100057.30;1685388;84;21204;-50
2021/08/30 04:20:54;;;;;;;10.80;5.35;;;;;;;21.86;53.85;100059.03;1736962;82;21248;-51
2021/08/30 04:24:02;;;;;;;9.65;5.20;;;;;;;21.90;53.73;100058.80;1701335;84;21402;-50
2021/08/30 04:27:07;;;;;;;10.70;5.30;;;;;;;21.93;53.79;100060.52;1737347;82;21306;-52
2021/08/30 04:30:14;;;;;;;11.75;5.62;;;;;;;21.97;53.29;100063.10;1701145;84;21773;-51
2021/08/30 04:33:21;;;;;;;12.33;5.12;;;;;;;22.01;53.37;100062.86;1721195;82;21338;-51
2021/08/30 04:36:27;;;;;;;11.15;5.08;;;;;;;22.07;53.42;100069.38;1693877;83;21224;-50
2021/08/30 04:39:32;;;;;;;9.78;5.20;;;;;;;22.12;52.88;100069.41;1736890;82;21222;-51
2021/08/30 04:42:38;;;;;;;8.03;4.62;;;;;;;22.16;52.79;100063.09;1738448;81;21207;-51
2021/08/30 04:45:45;;;;;;;9.45;5.20;;;;;;;22.21;52.85;100071.49;1767594;81;21732;-52
2021/08/30 04:48:51;;;;;;;10.50;4.87;;;;;;;22.27;52.83;100059.86;1762876;80;21192;-51
2021/08/30 04:51:56;;;;;;;11.18;5.33;;;;;;;22.33;52.90;100067.73;1747229;81;21227;-51
2021/08/30 04:55:03;;;;;;;9.40;4.92;;;;;;;22.39;52.93;100072.30;1751326;81;22045;-51
2021/08/30 04:58:11;;;;;;;12.70;4.42;;;;;;;22.46;52.79;100065.41;1707363;82;21258;-51
2021/08/30 05:01:16;;;;;;;13.90;5.33;;;;;;;22.54;52.33;100064.13;1713391;82;22181;-54
2021/08/30 05:04:22;;;;;;;8.93;4.83;;;;;;;22.60;51.82;100061.13;1756636;79;21170;-56
2021/08/30 05:07:28;;;;;;;14.68;4.90;;;;;;;22.69;51.52;100059.55;1787260;79;22122;-57
2021/08/30 05:10:37;;;;;;;11.03;4.70;;;;;;;22.77;51.52;100058.27;1777541;79;21216;-56
2021/08/30 05:13:43;;;;;;;9.40;4.67;;;;;;;22.85;51.12;100061.98;1784111;79;21236;-55
2021/08/30 05:16:50;;;;;;;14.35;5.28;;;;;;;22.90;50.82;100060.06;1779134;79;21550;-55
2021/08/30 05:19:56;;;;;;;10.25;5.40;;;;;;;22.97;50.72;100064.05;1769314;81;21653;-58
2021/08/30 05:23:02;;;;;;;11.12;4.87;;;;;;;23.03;50.80;100062.98;1790163;79;21177;-58
2021/08/30 05:26:09;;;;;;;14.85;5.75;;;;;;;23.09;50.22;100053.00;1769107;81;21197;-57
2021/08/30 05:29:16;;;;;;;15.00;5.25;;;;;;;23.16;50.02;100051.38;1768718;79;21251;-58
2021/08/30 05:32:21;;;;;;;11.85;5.35;;;;;;;23.22;50.17;100051.70;1769253;81;21280;-58
2021/08/30 05:35:26;;;;;;;11.73;4.90;;;;;;;23.29;49.89;100052.38;1795186;79;22104;-59
2021/08/30 05:38:32;;;;;;;8.33;5.30;;;;;;;23.35;49.77;100044.31;1791322;79;21511;-58
2021/08/30 05:41:37;;;;;;;9.48;4.90;;;;;;;23.43;49.41;100046.08;1792614;79;21177;-57
2021/08/30 05:44:44;;;;;;;13.22;5.30;;;;;;;23.50;49.23;100045.81;1763444;80;21790;-58
2021/08/30 05:47:49;;;;;;;9.20;4.58;;;;;;;23.55;48.91;100043.91;1770977;80;21290;-58
2021/08/30 05:50:55;;;;;;;12.75;5.12;;;;;;;23.63;48.96;100044.81;1770520;80;21736;-56
2021/08/30 05:54:04;;;;;;;12.03;5.33;;;;;;;23.71;49.05;100039.27;1770525;80;21293;-58
2021/08/30 05:57:11;;;;;;;11.12;5.05;;;;;;;23.78;49.13;100037.09;1785518;80;21232;-58
2021/08/30 06:00:17;;;;;;;9.85;5.08;;;;;;;23.85;49.00;100048.86;1799403;79;21201;-59
2021/08/30 06:03:24;;;;;;;9.78;5.20;;;;;;;23.92;48.71;100041.63;1801750;79;21741;-56
2021/08/30 06:06:30;;;;;;;26.62;5.90;;;;;;;23.99;48.30;100047.87;1780757;78;21252;-56
2021/08/30 06:09:37;;;;;;;16.05;5.50;;;;;;;24.07;48.41;100050.97;1715989;82;21252;-57
2021/08/30 06:12:44;;;;;;;12.28;5.42;;;;;;;24.14;48.49;100045.13;1734492;82;21228;-56
2021/08/30 06:15:50;;;;;;;10.98;4.75;;;;;;;24.22;48.50;100040.42;1750704;81;21229;-57
2021/08/30 06:18:57;;;;;;;10.85;5.22;;;;;;;24.31;47.99;100041.02;1728540;82;21259;-56
2021/08/30 06:22:04;;;;;;;9.83;5.00;;;;;;;24.41;48.22;100043.02;1728779;82;21182;-57
2021/08/30 06:25:12;;;;;;;13.78;5.30;;;;;;;24.52;48.01;100041.39;1729832;82;21222;-56
2021/08/30 06:28:18;;;;;;;14.10;4.97;;;;;;;24.62;47.71;100045.62;1731326;81;21172;-57
2021/08/30 06:31:24;;;;;;;14.20;5.33;;;;;;;24.68;47.58;100048.75;1727074;82;21762;-57
2021/08/30 06:34:31;;;;;;;12.90;5.25;;;;;;;24.73;47.76;100046.52;1784016;79;21759;-55
2021/08/30 06:37:38;;;;;;;15.70;5.35;;;;;;;24.80;47.36;100050.73;1786128;79;22127;-57
2021/08/30 06:40:43;;;;;;;16.12;5.30;;;;;;;24.88;47.27;100052.98;1782790;79;21882;-56
2021/08/30 06:43:50;;;;;;;15.68;5.42;;;;;;;24.96;47.33;100046.84;1774226;79;21333;-56
2021/08/30 06:46:57;;;;;;;15.30;6.00;;;;;;;25.03;47.55;100039.57;1783058;79;21157;-57
2021/08/30 06:50:03;;;;;;;12.98;5.50;;;;;;;25.10;47.43;100048.55;1732854;83;21225;-58
2021/08/30 06:53:11;;;;;;;14.93;5.20;;;;;;;25.16;47.29;100046.03;1720385;82;21224;-58
2021/08/30 06:56:17;;;;;;;22.42;6.53;;;;;;;25.28;47.34;100051.34;1727796;82;21774;-58
2021/08/30 06:59:22;;;;;;;21.60;6.03;;;;;;;25.40;47.55;100057.56;1730676;82;21201;-57
2021/08/30 07:02:28;;;;;;;11.03;5.58;;;;;;;25.47;47.01;100050.54;1783880;79;21375;-57
2021/08/30 07:05:36;;;;;;;15.95;5.60;;;;;;;25.57;47.22;100052.50;1783626;79;21831;-57
2021/08/30 07:08:42;;;;;;;14.53;5.85;;;;;;;25.67;47.70;100050.52;1797365;79;21324;-57
2021/08/30 07:11:46;;;;;;;11.97;6.05;;;;;;;25.80;47.29;100053.33;1793226;79;21845;-57
2021/08/30 07:14:53;;;;;;;13.60;5.35;;;;;;;25.93;47.41;100049.91;1784588;79;21208;-56
2021/08/30 07:17:58;;;;;;;11.18;5.60;;;;;;;26.03;46.87;100047.13;1778892;79;21169;-58
2021/08/30 07:21:04;;;;;;;16.02;5.92;;;;;;;26.10;46.66;100048.49;1769856;80;22049;-58
2021/08/30 07:24:09;;;;;;;16.25;6.03;;;;;;;26.20;46.97;100054.64;1774993;79;21745;-58
2021/08/30 07:27:13;;;;;;;11.40;6.30;;;;;;;26.27;46.39;100059.40;1765089;79;21994;-57
2021/08/30 07:30:19;;;;;;;13.22;5.72;;;;;;;26.34;46.29;100066.38;1791156;78;21189;-58
2021/08/30 07:33:23;;;;;;;16.67;6.20;;;;;;;26.45;46.32;100063.80;1775887;79;21166;-57
2021/08/30 07:36:29;;;;;;;12.07;6.03;;;;;;;26.61;46.42;100055.33;1772988;79;21182;-62
2021/08/30 07:39:33;;;;;;;11.20;5.62;;;;;;;26.75;46.17;100048.79;1782284;79;21209;-57
2021/08/30 07:42:39;;;;;;;14.90;5.87;;;;;;;26.88;45.75;100056.58;1768311;79;21177;-56
2021/08/30 07:45:45;;;;;;;10.08;5.37;;;;;;;27.01;46.05;100053.69;1781966;79;21306;-58
2021/08/30 07:48:52;;;;;;;16.35;6.28;;;;;;;27.12;45.98;100063.17;1768603;80;21208;-57
2021/08/30 07:51:57;;;;;;;16.40;6.50;;;;;;;27.22;45.94;100058.89;1774995;79;21250;-60
2021/08/30 07:55:04;;;;;;;15.78;5.65;;;;;;;27.30;45.71;100051.27;1776237;79;21197;-57
2021/08/30 07:58:15;;;;;;;12.68;5.92;;;;;;;27.37;45.14;100048.95;1776854;79;21164;-58
2021/08/30 08:01:19;;;;;;;17.60;5.85;;;;;;;27.41;45.29;100043.59;1782710;79;21206;-58
2021/08/30 08:04:25;;;;;;;14.65;6.22;;;;;;;27.48;45.32;100047.73;1768672;80;21765;-56
2021/08/30 08:07:30;;;;;;;15.50;6.58;;;;;;;27.53;45.18;100051.05;1775085;79;21208;-57
2021/08/30 08:10:40;;;;;;;15.45;6.28;;;;;;;27.56;45.22;100041.47;1800220;79;22013;-58
2021/08/30 08:13:45;;;;;;;13.93;6.35;;;;;;;27.57;44.87;100044.58;1800832;79;21263;-59
2021/08/30 08:16:52;;;;;;;17.35;5.95;;;;;;;27.59;45.16;100047.91;1800765;79;21527;-58
2021/08/30 08:19:58;;;;;;;15.83;5.90;;;;;;;27.57;45.08;100048.80;1771202;79;21244;-58
2021/08/30 08:23:07;;;;;;;13.00;5.95;;;;;;;27.55;45.09;100045.43;1769191;81;21228;-57
2021/08/30 08:26:14;;;;;;;12.58;5.92;;;;;;;27.54;45.35;100045.13;1769273;80;21320;-58
2021/08/30 08:29:20;;;;;;;11.70;5.85;;;;;;;27.56;45.65;100037.25;1769427;80;21212;-58
2021/08/30 08:32:27;;;;;;;12.33;6.10;;;;;;;27.61;46.07;100027.92;1782227;79;21479;-58
2021/08/30 08:35:33;;;;;;;12.25;6.35;;;;;;;27.66;45.84;100032.09;1786157;79;21217;-58
2021/08/30 08:38:38;;;;;;;16.62;6.80;;;;;;;27.70;46.10;100034.02;1775165;79;21722;-57
2021/08/30 08:41:43;;;;;;;14.83;6.80;;;;;;;27.75;45.90;100039.59;1791773;79;21298;-56
2021/08/30 08:44:48;;;;;;;12.95;5.78;;;;;;;27.81;45.94;100028.55;1781772;79;21739;-56
2021/08/30 08:47:53;;;;;;;15.55;6.55;;;;;;;27.90;45.63;100031.61;1783700;79;22118;-58
2021/08/30 08:50:58;;;;;;;9.78;5.67;;;;;;;27.98;45.64;100025.33;1785030;79;21538;-57
2021/08/30 08:54:09;;;;;;;20.00;6.37;;;;;;;28.04;45.92;100028.91;1780131;79;21169;-56
2021/08/30 08:57:12;;;;;;;15.98;6.47;;;;;;;28.07;45.25;100026.34;1781004;79;21154;-58
2021/08/30 09:00:19;;;;;;;16.32;6.28;;;;;;;28.07;45.47;100024.11;1760539;79;21211;-57
2021/08/30 09:03:26;;;;;;;14.98;6.30;;;;;;;28.11;45.68;100022.36;1778761;79;21607;-56
2021/08/30 09:06:43;;;;;;;19.10;6.33;;;;;;;28.19;45.79;100021.70;1779164;79;21176;-56
2021/08/30 09:09:49;;;;;;;12.33;6.65;;;;;;;28.28;45.99;100016.52;1766310;80;21201;-55
2021/08/30 09:12:55;;;;;;;14.35;6.85;;;;;;;28.40;46.21;100013.28;1781504;79;21177;-56
2021/08/30 09:16:04;;;;;;;22.20;6.85;;;;;;;28.54;46.20;100012.83;1799991;78;21170;-55
2021/08/30 09:19:13;;;;;;;16.73;6.58;;;;;;;28.70;46.38;100012.30;1783283;79;21482;-55
2021/08/30 09:22:19;;;;;;;14.40;6.60;;;;;;;28.95;46.14;100008.28;1767911;80;21677;-54
2021/08/30 09:25:24;;;;;;;12.70;6.97;;;;;;;29.17;45.51;100003.73;1781672;79;21173;-55
2021/08/30 09:28:41;;;;;;;15.28;6.47;;;;;;;29.34;45.29;100001.73;1781964;79;21728;-55
2021/08/30 09:31:48;;;;;;;16.32;6.72;;;;;;;29.51;44.35;100012.46;1777371;79;22011;-55
2021/08/30 09:34:57;;;;;;;14.83;6.78;;;;;;;29.67;43.86;100003.42;1786684;79;21163;-55
2021/08/30 09:38:03;;;;;;;16.52;6.40;;;;;;;29.80;44.00;100005.45;1784380;79;21728;-56
2021/08/30 09:41:14;;;;;;;17.15;6.50;;;;;;;29.92;43.77;100002.94;1784261;79;21888;-55
2021/08/30 09:44:20;;;;;;;12.35;7.47;;;;;;;29.96;43.03;99998.36;1778091;79;21189;-55
2021/08/30 09:47:27;;;;;;;15.35;7.00;;;;;;;29.96;43.03;99998.36;1789098;79;21371;-55
2021/08/30 09:50:41;;;;;;;17.77;7.03;;;;;;;30.09;43.38;99994.70;1769695;80;21196;-54
2021/08/30 09:53:47;;;;;;;18.23;7.58;;;;;;;30.18;42.95;100000.44;1788283;79;21205;-55
2021/08/30 09:56:52;;;;;;;16.70;6.87;;;;;;;30.20;42.91;99997.59;1801875;79;21415;-54
2021/08/30 09:59:58;;;;;;;17.48;7.87;;;;;;;30.29;42.99;100001.38;1784370;79;21324;-54
2021/08/30 10:03:05;;;;;;;20.57;7.62;;;;;;;30.32;43.13;99995.66;1783284;79;21194;-56
2021/08/30 10:06:11;;;;;;;14.95;6.85;;;;;;;30.41;42.42;100000.84;1788101;79;21314;-56
2021/08/30 10:09:17;;;;;;;15.98;7.15;;;;;;;30.41;42.42;100000.84;1784483;79;21339;-56
2021/08/30 10:12:22;;;;;;;15.30;7.37;;;;;;;30.52;42.77;100003.11;1775567;79;21181;-55
2021/08/30 10:15:30;;;;;;;21.85;7.70;;;;;;;30.62;42.96;99998.66;1802646;79;21182;-56
2021/08/30 10:18:36;;;;;;;17.42;8.00;;;;;;;30.65;42.74;99995.80;1802367;79;21181;-56
2021/08/30 10:21:52;;;;;;;20.08;7.78;;;;;;;30.60;43.23;100000.95;1781409;79;21188;-56
2021/08/30 10:24:57;;;;;;;18.65;8.03;;;;;;;30.56;43.52;100003.33;1802902;79;21212;-56
2021/08/30 10:28:06;;;;;;;23.02;8.05;;;;;;;30.60;42.86;100000.95;1789868;79;21783;-56
2021/08/30 10:31:32;;;;;;;13.95;7.60;;;;;;;30.77;43.46;100005.99;1786802;79;21179;-57
2021/08/30 10:34:41;;;;;;;19.05;7.92;;;;;;;30.94;43.15;99999.67;1786019;79;21185;-56
2021/08/30 10:38:06;;;;;;;19.57;8.00;;;;;;;31.03;43.24;99999.16;1784871;79;21186;-56
2021/08/30 10:41:13;;;;;;;16.55;8.08;;;;;;;31.13;43.56;99998.92;1793235;79;21237;-57
2021/08/30 10:44:31;;;;;;;14.35;8.40;;;;;;;31.28;43.30;99992.87;1802439;79;21339;-57
2021/08/30 10:47:45;;;;;;;22.22;9.18;;;;;;;31.36;41.99;100000.63;1802459;79;21825;-57
2021/08/30 10:50:57;;;;;;;22.45;8.30;;;;;;;31.25;41.37;99990.69;1799822;79;21173;-57
2021/08/30 10:54:04;;;;;;;17.17;8.93;;;;;;;31.19;41.40;99996.22;1786972;79;21253;-55
2021/08/30 10:57:11;;;;;;;17.73;8.43;;;;;;;31.22;41.28;99999.25;1791022;79;21243;-54
2021/08/30 11:00:18;;;;;;;21.90;8.70;;;;;;;31.29;40.23;99998.78;1785660;79;21758;-55
2021/08/30 11:03:40;;;;;;;18.95;7.92;;;;;;;31.37;40.02;99998.88;1771050;79;21184;-53
2021/08/30 11:06:46;;;;;;;16.75;9.68;;;;;;;31.44;39.96;99998.44;1790015;79;21352;-55
2021/08/30 11:09:52;;;;;;;17.17;8.35;;;;;;;31.53;39.76;100000.16;1793932;79;21395;-56
2021/08/30 11:13:11;;;;;;;17.00;7.95;;;;;;;31.60;39.06;99996.28;1798954;79;21193;-55
2021/08/30 11:16:28;;;;;;;16.77;8.03;;;;;;;31.63;37.97;99996.23;1724872;82;21780;-55
2021/08/30 11:19:33;;;;;;;18.70;7.67;;;;;;;31.68;38.13;99997.52;1726117;82;21286;-54
2021/08/30 11:22:39;;;;;;;21.62;8.25;;;;;;;31.76;38.54;99998.14;1729108;82;21802;-55
2021/08/30 11:25:45;;;;;;;17.35;7.60;;;;;;;31.84;38.41;99997.39;1733448;82;21824;-54
2021/08/30 11:29:08;;;;;;;16.20;8.53;;;;;;;31.92;37.73;99992.35;1767203;79;21205;-54
2021/08/30 11:32:14;;;;;;;19.60;8.23;;;;;;;31.93;37.26;99994.02;1713656;82;21243;-54
2021/08/30 11:35:22;;;;;;;24.77;8.60;;;;;;;31.98;37.59;99986.79;1724723;82;21328;-55
2021/08/30 11:38:28;;;;;;;15.53;7.40;;;;;;;32.04;37.73;99976.98;1777461;79;21173;-54
2021/08/30 11:41:35;;;;;;;19.42;8.18;;;;;;;32.07;37.59;99969.24;1782161;79;21174;-55
2021/08/30 11:44:43;;;;;;;15.13;7.33;;;;;;;32.12;38.00;99969.09;1766036;79;21170;-56
2021/08/30 11:47:52;;;;;;;15.63;7.92;;;;;;;32.17;37.25;99970.94;1769828;80;21189;-55
2021/08/30 11:50:59;;;;;;;16.67;7.08;;;;;;;32.20;37.48;99961.78;1770727;80;21328;-54
2021/08/30 11:54:04;;;;;;;13.75;8.03;;;;;;;32.27;37.10;99957.91;1770868;80;21295;-54
2021/08/30 11:57:18;;;;;;;21.27;7.15;;;;;;;32.36;37.34;99958.75;1794864;79;21694;-55
2021/08/30 12:00:28;;;;;;;16.42;7.70;;;;;;;32.41;37.18;99960.05;1802074;79;21863;-54
2021/08/30 12:03:35;;;;;;;16.42;8.30;;;;;;;32.48;36.99;99952.72;1802350;79;21399;-54
2021/08/30 12:06:42;;;;;;;20.97;8.35;;;;;;;32.56;37.31;99946.23;1802568;79;21331;-55
2021/08/30 12:09:59;;;;;;;15.93;7.17;;;;;;;32.62;36.97;99949.76;1802325;79;21418;-54
2021/08/30 12:13:32;;;;;;;19.55;7.78;;;;;;;32.61;36.83;99955.16;1801301;78;21854;-56
2021/08/30 12:16:32;;;;;;;15.40;7.67;;;;;;;32.56;36.01;99948.22;1770548;81;21241;-54
2021/08/30 12:19:37;;;;;;;16.45;7.47;;;;;;;32.49;35.60;99937.97;1770885;80;21412;-55
2021/08/30 12:22:54;;;;;;;10.78;7.37;;;;;;;32.38;35.82;99939.45;1771941;79;21201;-55
2021/08/30 12:25:59;;;;;;;14.35;7.47;;;;;;;32.25;35.41;99939.81;1770127;80;21256;-54
2021/08/30 12:29:09;;;;;;;21.12;7.80;;;;;;;32.07;35.30;99936.66;1793592;79;21411;-55
2021/08/30 12:32:15;;;;;;;19.07;7.75;;;;;;;31.96;35.85;99933.88;1795656;79;21695;-54
2021/08/30 12:35:20;;;;;;;12.85;6.90;;;;;;;31.92;36.01;99932.87;1802179;79;21260;-55
2021/08/30 12:38:29;;;;;;;14.75;7.62;;;;;;;31.99;36.46;99931.23;1802524;79;21423;-55
2021/08/30 12:41:35;;;;;;;11.90;7.90;;;;;;;32.15;36.61;99922.27;1791941;79;21224;-55
2021/08/30 12:44:42;;;;;;;13.05;7.65;;;;;;;32.29;37.15;99918.14;1801769;79;21398;-55
2021/08/30 12:47:49;;;;;;;14.70;7.70;;;;;;;32.38;36.91;99911.12;1793105;79;21351;-54
2021/08/30 12:50:59;;;;;;;15.25;7.17;;;;;;;32.41;36.46;99909.03;1769977;80;21173;-55
2021/08/30 12:54:04;;;;;;;16.93;8.08;;;;;;;32.38;36.50;99909.70;1770451;80;21229;-55
2021/08/30 12:57:10;;;;;;;18.37;7.67;;;;;;;32.36;36.67;99899.23;1783313;79;21765;-54
2021/08/30 13:00:18;;;;;;;21.25;7.62;;;;;;;32.33;36.59;99898.48;1795521;79;21298;-55
2021/08/30 13:03:26;;;;;;;15.95;7.92;;;;;;;32.30;36.65;99903.40;1770463;80;21679;-55
2021/08/30 13:06:31;;;;;;;15.40;8.15;;;;;;;32.27;36.60;99895.56;1763739;81;21220;-55
2021/08/30 13:09:37;;;;;;;16.48;7.97;;;;;;;32.25;36.50;99901.56;1776658;79;21161;-55
2021/08/30 13:12:42;;;;;;;16.77;8.53;;;;;;;32.27;36.48;99895.56;1801021;79;21413;-55
2021/08/30 13:15:55;;;;;;;17.73;7.33;;;;;;;32.28;36.77;99899.48;1800869;79;21709;-54
2021/08/30 13:19:03;;;;;;;16.95;8.20;;;;;;;32.33;36.73;99893.66;1795330;79;21217;-53
2021/08/30 13:22:08;;;;;;;15.85;7.65;;;;;;;32.36;36.11;99890.16;1802728;79;21386;-53
2021/08/30 13:25:16;;;;;;;17.52;7.75;;;;;;;32.35;36.03;99887.05;1787225;79;21186;-53
2021/08/30 13:28:22;;;;;;;20.10;8.60;;;;;;;32.29;35.82;99886.13;1797131;79;21323;-55
2021/08/30 13:31:26;;;;;;;12.98;7.83;;;;;;;32.19;35.67;99884.44;1798970;79;21758;-54
2021/08/30 13:34:32;;;;;;;17.00;8.13;;;;;;;32.14;35.31;99881.79;1770947;79;21213;-54
2021/08/30 13:37:38;;;;;;;14.90;8.70;;;;;;;32.11;34.92;99879.62;1799678;79;21240;-54
2021/08/30 13:40:46;;;;;;;17.42;7.90;;;;;;;32.14;35.04;99876.12;1801434;79;21216;-53
2021/08/30 13:43:52;;;;;;;15.43;7.65;;;;;;;32.15;34.73;99883.45;1794870;79;21205;-54
2021/08/30 13:47:01;;;;;;;12.85;7.30;;;;;;;32.13;34.41;99885.77;1794476;79;21695;-54
2021/08/30 13:50:06;;;;;;;15.15;8.00;;;;;;;32.13;34.08;99894.27;1801554;79;21423;-54
2021/08/30 13:53:12;;;;;;;14.05;7.60;;;;;;;32.12;34.53;99894.03;1801231;79;21158;-54
2021/08/30 13:56:19;;;;;;;15.20;7.78;;;;;;;32.11;34.78;99886.70;1795145;79;21350;-55
2021/08/30 13:59:24;;;;;;;17.32;7.28;;;;;;;32.10;34.75;99889.27;1770519;80;21256;-56
2021/08/30 14:02:32;;;;;;;12.20;6.85;;;;;;;32.06;34.54;99882.60;1763147;81;21707;-55
2021/08/30 14:05:38;;;;;;;17.80;7.03;;;;;;;32.03;34.26;99882.66;1769614;80;21212;-55
2021/08/30 14:08:44;;;;;;;14.60;7.87;;;;;;;31.99;34.61;99879.41;1769609;80;21244;-55
2021/08/30 14:11:49;;;;;;;15.32;6.70;;;;;;;31.96;34.84;99884.31;1770269;80;21713;-55
2021/08/30 14:14:55;;;;;;;16.80;7.12;;;;;;;31.93;35.12;99885.82;1770058;78;21189;-54
2021/08/30 14:18:03;;;;;;;14.05;6.70;;;;;;;31.90;34.83;99882.20;1769879;80;21272;-54
2021/08/30 14:21:09;;;;;;;13.62;6.65;;;;;;;31.87;34.53;99879.22;1769754;80;21228;-55
2021/08/30 14:24:15;;;;;;;14.10;7.17;;;;;;;31.84;34.95;99876.44;1763111;81;21206;-54
2021/08/30 14:27:20;;;;;;;11.25;6.47;;;;;;;31.81;34.71;99876.22;1769864;80;22010;-54